»·PEaware :: UAL2015 KORD-KDEN

UAL2015 :: KORD-KDEN

FLIGHT INFORMATION

Flight Status: Arrived
Operator:
United Airlines
More flights by this operator :: More flights under this callsign
Pilot: Colin A. (19898)
Aircraft: BOEING 757-200
(B752)
More flights by this aircraft type
Origin: KORD Chicago-O'Hare Intl
United States
Destination: KDEN Denver Intl
United States
More flights between these airports :: More routes between these airports
Route: +OLINN OREOS OBENE OGALE SPAWN KOHOE3
File this flight plan on PilotEdge
Remarks: PBN / A1B3B4B5C4D4O4 DOF / 181011 REG / N752UA EET / KZMP0047 KZDV0128 SEL / GRFS OPR / UAL PER / D RMK / TCAS SIMBRIEF
Altitude:
(Current/Filed)
38,000ft
Speed:
(Current/Filed)
458kts
Departed: 11-Oct-18 02:09 PM
Arrived: 11-Oct-18 04:21 PM
Distance/Time
Traveled:
770nm/2:12
Distance/Time
To Go:
Arrived

Flight Plot

Page will automatically refresh every two minutes.


Map Options




Map Legend


Flown Route
Filed Route
Departure Airport
Arrival Airport
Navaid (VOR, NDB)
Fix

Horizontal Profiles

Position Reports

Time Latitude Longitude Heading Altitude Ground
Speed
11-Oct-18 14:02 41.976194 -87.909604 217 679ft 16kts
11-Oct-18 14:03 41.972870 -87.911288 175 679ft 10kts
11-Oct-18 14:04 41.970380 -87.918866 271 679ft 26kts
11-Oct-18 14:05 41.970377 -87.924222 270 679ft 15kts
11-Oct-18 14:06 41.970367 -87.929115 271 679ft 2kts
11-Oct-18 14:07 41.970372 -87.930224 267 679ft 0kts
11-Oct-18 14:08 41.970360 -87.930780 269 679ft 0kts
11-Oct-18 14:09 41.969797 -87.931340 171 679ft 0kts
11-Oct-18 14:10 41.969025 -87.931061 88 679ft 0kts
11-Oct-18 14:11 41.969092 -87.891198 93 1403ft 223kts
11-Oct-18 14:12 41.971251 -87.807643 91 3782ft 244kts
11-Oct-18 14:13 41.975457 -87.708428 92 6316ft 287kts
11-Oct-18 14:14 41.980165 -87.599312 94 8827ft 295kts
11-Oct-18 14:15 41.929408 -87.536589 176 11145ft 277kts
11-Oct-18 14:16 41.850386 -87.524293 177 13154ft 293kts
11-Oct-18 14:17 41.786382 -87.572676 253 15162ft 308kts
11-Oct-18 14:18 41.797407 -87.694392 276 16139ft 355kts
11-Oct-18 14:19 41.814961 -87.830598 275 17285ft 376kts
11-Oct-18 14:20 41.832377 -87.970019 275 18705ft 383kts
11-Oct-18 14:21 41.849383 -88.112705 275 19894ft 391kts
11-Oct-18 14:22 41.863142 -88.233765 274 20804ft 398kts
11-Oct-18 14:23 41.881643 -88.407385 274 21952ft 407kts
11-Oct-18 14:24 41.896332 -88.559323 273 22841ft 413kts
11-Oct-18 14:25 41.907157 -88.687761 272 23543ft 418kts
11-Oct-18 14:26 41.914112 -88.844398 265 24288ft 420kts
11-Oct-18 14:27 41.908243 -89.000807 264 25097ft 422kts
11-Oct-18 14:28 41.903026 -89.158858 264 25783ft 425kts
11-Oct-18 14:29 41.888709 -89.342951 259 26514ft 426kts
11-Oct-18 14:30 41.875519 -89.474399 260 26992ft 428kts
11-Oct-18 14:31 41.859853 -89.633638 259 27524ft 430kts
11-Oct-18 14:32 41.843769 -89.792994 259 28010ft 432kts
11-Oct-18 14:33 41.827220 -89.952898 259 28448ft 434kts
11-Oct-18 14:34 41.810335 -90.114023 259 28849ft 437kts
11-Oct-18 14:35 41.793178 -90.275530 259 29211ft 439kts
11-Oct-18 14:36 41.775682 -90.438004 259 29587ft 441kts
11-Oct-18 14:37 41.757868 -90.601145 258 29918ft 444kts
11-Oct-18 14:38 41.739725 -90.765134 258 30248ft 446kts
11-Oct-18 14:39 41.721305 -90.929418 258 30585ft 447kts
11-Oct-18 14:40 41.702676 -91.093284 257 31324ft 438kts
11-Oct-18 14:41 41.684171 -91.253319 257 31857ft 434kts
11-Oct-18 14:42 41.665619 -91.412243 257 32321ft 431kts
11-Oct-18 14:43 41.647009 -91.569743 256 32776ft 428kts
11-Oct-18 14:44 41.628281 -91.726373 256 33191ft 425kts
11-Oct-18 14:45 41.609400 -91.882429 256 33548ft 423kts
11-Oct-18 14:46 41.590513 -92.036861 256 33923ft 421kts
11-Oct-18 14:47 41.571455 -92.190828 256 34216ft 420kts
11-Oct-18 14:48 41.552206 -92.344703 255 34454ft 420kts
11-Oct-18 14:49 41.532731 -92.498670 255 34683ft 420kts
11-Oct-18 14:50 41.513153 -92.651745 255 34935ft 419kts
11-Oct-18 14:51 41.493349 -92.804866 255 35178ft 418kts
11-Oct-18 14:52 41.473439 -92.957196 254 35409ft 417kts
11-Oct-18 14:53 41.453324 -93.109428 254 35628ft 416kts
11-Oct-18 14:54 41.433065 -93.261151 254 35854ft 415kts
11-Oct-18 14:55 41.412710 -93.412027 254 36090ft 413kts
11-Oct-18 14:56 41.397238 -93.589857 260 36392ft 416kts
11-Oct-18 14:57 41.390324 -93.743873 259 36503ft 416kts
11-Oct-18 14:58 41.383639 -93.871534 259 36641ft 415kts
11-Oct-18 14:59 41.375562 -94.025057 259 36785ft 415kts
11-Oct-18 15:00 41.367306 -94.177732 259 36968ft 413kts
11-Oct-18 15:01 41.358877 -94.329884 259 37087ft 413kts
11-Oct-18 15:02 41.348782 -94.507559 258 37228ft 412kts
11-Oct-18 15:03 41.341422 -94.634218 258 37328ft 411kts
11-Oct-18 15:04 41.332406 -94.786060 258 37406ft 412kts
11-Oct-18 15:05 41.323186 -94.938089 258 37498ft 412kts
11-Oct-18 15:06 41.313774 -95.089872 257 37601ft 412kts
11-Oct-18 15:07 41.304137 -95.241913 257 37696ft 411kts
11-Oct-18 15:08 41.294366 -95.392998 257 37783ft 411kts
11-Oct-18 15:09 41.284360 -95.544599 257 37900ft 410kts
11-Oct-18 15:10 41.274166 -95.695737 256 37905ft 412kts
11-Oct-18 15:11 41.263740 -95.847598 256 37905ft 414kts
11-Oct-18 15:12 41.253014 -96.000405 256 37914ft 414kts
11-Oct-18 15:13 41.242120 -96.152604 255 37906ft 414kts
11-Oct-18 15:14 41.231021 -96.305047 255 37909ft 414kts
11-Oct-18 15:15 41.219805 -96.457008 255 37914ft 414kts
11-Oct-18 15:16 41.208274 -96.609731 255 37922ft 415kts
11-Oct-18 15:17 41.196599 -96.761946 255 37923ft 415kts
11-Oct-18 15:18 41.184708 -96.914453 255 37928ft 415kts
11-Oct-18 15:19 41.172613 -97.067024 254 37937ft 414kts
11-Oct-18 15:20 41.160316 -97.219289 254 37946ft 415kts
11-Oct-18 15:21 41.147808 -97.371610 254 37951ft 415kts
11-Oct-18 15:22 41.134839 -97.523009 252 37947ft 412kts
11-Oct-18 15:23 41.121652 -97.673946 253 37941ft 412kts
11-Oct-18 15:24 41.108711 -97.824517 252 37938ft 411kts
11-Oct-18 15:25 41.095515 -97.975561 252 37938ft 412kts
11-Oct-18 15:26 41.082098 -98.126328 252 37963ft 411kts
11-Oct-18 15:27 41.066257 -98.301486 251 37984ft 411kts
11-Oct-18 15:28 41.053305 -98.426147 250 37992ft 409kts
11-Oct-18 15:29 41.036712 -98.575267 250 37995ft 409kts
11-Oct-18 15:30 41.020101 -98.724442 250 37999ft 410kts
11-Oct-18 15:31 41.000486 -98.898286 245 38000ft 407kts
11-Oct-18 15:32 40.985668 -99.021581 250 38000ft 409kts
11-Oct-18 15:33 40.969348 -99.170079 250 37992ft 406kts
11-Oct-18 15:34 40.951880 -99.318264 250 37992ft 405kts
11-Oct-18 15:35 40.934444 -99.465864 249 37999ft 406kts
11-Oct-18 15:36 40.916859 -99.613225 249 37991ft 406kts
11-Oct-18 15:37 40.899078 -99.760715 249 37993ft 407kts
11-Oct-18 15:38 40.881038 -99.908285 249 37996ft 406kts
11-Oct-18 15:39 40.862815 -100.055817 248 38003ft 406kts
11-Oct-18 15:40 40.844455 -100.202819 248 38014ft 405kts
11-Oct-18 15:41 40.825911 -100.349771 248 38028ft 406kts
11-Oct-18 15:42 40.807142 -100.496722 248 38040ft 406kts
11-Oct-18 15:43 40.788261 -100.643673 248 38052ft 405kts
11-Oct-18 15:44 40.765490 -100.787694 246 38059ft 401kts
11-Oct-18 15:45 40.741677 -100.932155 246 38056ft 402kts
11-Oct-18 15:46 40.717693 -101.075994 245 38053ft 401kts
11-Oct-18 15:47 40.692461 -101.219252 245 38050ft 402kts
11-Oct-18 15:48 40.667297 -101.363112 245 38049ft 403kts
11-Oct-18 15:49 40.642504 -101.507137 245 38046ft 403kts
11-Oct-18 15:50 40.618256 -101.651504 245 38044ft 405kts
11-Oct-18 15:51 40.594502 -101.796369 245 38043ft 404kts
11-Oct-18 15:52 40.570957 -101.941682 245 38044ft 407kts
11-Oct-18 15:53 40.547589 -102.087587 245 38045ft 407kts
11-Oct-18 15:54 40.524344 -102.233122 245 38044ft 407kts
11-Oct-18 15:55 40.500993 -102.379213 246 38045ft 409kts
11-Oct-18 15:56 40.477649 -102.525289 246 38045ft 408kts
11-Oct-18 15:57 40.454190 -102.671188 246 38044ft 407kts
11-Oct-18 15:58 40.434998 -102.770613 233 38029ft 392kts
11-Oct-18 15:59 40.434998 -102.770613 233 38029ft 392kts
11-Oct-18 16:00 40.415102 -102.821289 238 38039ft 391kts
11-Oct-18 16:01 40.383606 -102.961083 243 37979ft 405kts
11-Oct-18 16:02 40.352586 -103.108532 241 34860ft 433kts
11-Oct-18 16:03 40.320577 -103.260833 242 31941ft 440kts
11-Oct-18 16:04 40.287760 -103.416663 244 29025ft 446kts
11-Oct-18 16:05 40.256527 -103.568559 246 26222ft 406kts
11-Oct-18 16:06 40.228047 -103.712717 248 23524ft 401kts
11-Oct-18 16:07 40.200656 -103.848192 244 22109ft 351kts
11-Oct-18 16:08 40.154328 -103.951367 232 20418ft 322kts
11-Oct-18 16:09 40.108776 -104.049868 233 18805ft 310kts
11-Oct-18 16:10 40.053314 -104.135079 221 17552ft 305kts
11-Oct-18 16:11 39.991960 -104.211689 240 16896ft 335kts
11-Oct-18 16:12 39.959369 -104.331823 251 14548ft 352kts
11-Oct-18 16:13 39.928167 -104.442808 238 13645ft 300kts
11-Oct-18 16:14 39.862427 -104.502534 183 11458ft 302kts
11-Oct-18 16:15 39.778267 -104.501350 182 11071ft 302kts
11-Oct-18 16:16 39.695292 -104.502545 180 11072ft 286kts
11-Oct-18 16:17 39.628573 -104.526057 239 10515ft 251kts
11-Oct-18 16:18 39.624210 -104.610038 309 8998ft 239kts
11-Oct-18 16:19 39.676713 -104.652552 349 8075ft 210kts
11-Oct-18 16:20 39.734340 -104.660802 359 7256ft 192kts
11-Oct-18 16:21 39.781045 -104.661094 2 6405ft 148kts
11-Oct-18 16:22 39.821318 -104.660647 2 5624ft 147kts
11-Oct-18 16:23 39.847718 -104.660678 337 5442ft 27kts
11-Oct-18 16:24 39.849238 -104.661696 330 5442ft 0kts
11-Oct-18 16:25 39.849734 -104.662046 332 5442ft 19kts
11-Oct-18 16:26 39.856786 -104.663215 262 5442ft 17kts
11-Oct-18 16:27 39.856676 -104.666367 271 5442ft 0kts
11-Oct-18 16:28 39.857350 -104.670250 270 5442ft 24kts
11-Oct-18 16:29 39.857890 -104.674631 359 5442ft 7kts
11-Oct-18 16:30 39.858144 -104.674633 0 5442ft 0kts
11-Oct-18 16:31 39.858144 -104.674633 0 5442ft 0kts

Navigation Log

Ident Type
1. KORD Airport
2. OLINN Navaid
3. OREOS Navaid
4. OBENE Navaid
5. OGALE Navaid
6. SPAWN Fix
7. MNNOW Fix
8. MRRAY Fix
9. PUFFR Fix
10. PIEKE Fix
11. KOHOE Fix
12. SLMON Fix
13. SAYGE Fix
14. EEZEE Fix
15. MOKME Fix
16. DHATT Fix
17. FFFAT Fix
18. DOGGG Fix
19. DONTT Fix
20. BARRK Fix
21. KDEN Airport